Time;durP1;ratioP1;P1;durP2;ratioP2;P2;SDS_P1;SDS_P2;PMS_P1;PMS_P2;Temp;Humidity;BMP_temperature;BMP_pressure;BME280_temperature;BME280_humidity;BME280_pressure;Samples;Min_cycle;Max_cycle;Signal;HPM_P1;HPM_P2
2023/10/21 00:01:35;;;;;;;48.67;9.88;;;22.70;99.90;;;;;;4902840;29;20036;-90
2023/10/21 00:04:01;;;;;;;38.33;9.95;;;22.70;99.90;;;;;;4902893;29;20020;-89
2023/10/21 00:06:28;;;;;;;43.35;9.75;;;22.80;99.90;;;;;;4902624;29;20024;-90
2023/10/21 00:08:54;;;;;;;42.22;10.05;;;22.70;99.90;;;;;;4902652;29;20028;-89
2023/10/21 00:11:20;;;;;;;45.03;11.27;;;22.80;99.90;;;;;;4902716;29;20032;-90
2023/10/21 00:13:46;;;;;;;59.55;11.65;;;22.80;99.90;;;;;;4902695;29;20040;-90
2023/10/21 00:16:15;;;;;;;46.42;10.32;;;22.80;99.90;;;;;;4902471;29;20115;-90
2023/10/21 00:18:42;;;;;;;35.03;10.10;;;22.80;99.90;;;;;;4902672;29;20196;-91
2023/10/21 00:21:08;;;;;;;52.58;10.60;;;22.70;99.90;;;;;;4902525;29;20553;-90
2023/10/21 00:23:37;;;;;;;44.53;10.07;;;22.70;99.90;;;;;;4902294;29;20055;-90
2023/10/21 00:26:07;;;;;;;48.33;10.25;;;22.70;99.90;;;;;;4905570;29;20031;-89
2023/10/21 00:28:33;;;;;;;46.30;9.85;;;22.70;99.90;;;;;;4905527;29;20038;-90
2023/10/21 00:31:04;;;;;;;49.05;10.43;;;22.70;99.90;;;;;;4905009;29;20473;-89
2023/10/21 00:33:30;;;;;;;45.88;10.05;;;22.70;99.90;;;;;;4921109;29;20035;-89
2023/10/21 00:35:57;;;;;;;37.00;9.88;;;22.70;99.90;;;;;;4905217;29;20485;-90
2023/10/21 00:38:23;;;;;;;44.30;11.48;;;22.70;99.90;;;;;;4905497;29;20035;-89
2023/10/21 00:40:55;;;;;;;35.35;9.82;;;22.70;99.90;;;;;;4905121;29;20036;-90
2023/10/21 00:43:38;;;;;;;45.03;11.55;;;22.70;99.90;;;;;;4905343;29;20031;-90
2023/10/21 00:46:19;;;;;;;46.88;11.65;;;22.70;99.90;;;;;;4886477;29;20028;-90
2023/10/21 00:48:48;;;;;;;41.78;10.57;;;22.70;99.90;;;;;;4886532;29;20032;-89
2023/10/21 00:51:15;;;;;;;48.17;10.75;;;22.70;99.90;;;;;;4886531;29;20024;-90
2023/10/21 00:53:43;;;;;;;59.55;12.18;;;22.70;99.90;;;;;;4886243;29;20036;-90
2023/10/21 00:56:09;;;;;;;51.10;11.45;;;22.60;99.90;;;;;;4886023;29;20035;-90
2023/10/21 00:58:36;;;;;;;45.65;11.20;;;22.60;99.90;;;;;;4879690;29;20037;-90
2023/10/21 01:01:09;;;;;;;47.45;10.93;;;22.60;99.90;;;;;;4864671;29;20029;-90
2023/10/21 01:03:36;;;;;;;51.88;11.90;;;22.60;99.90;;;;;;4864462;29;20085;-89
2023/10/21 01:06:06;;;;;;;52.72;13.15;;;22.60;99.90;;;;;;4864448;29;20029;-90
2023/10/21 01:08:43;;;;;;;44.63;11.48;;;22.60;99.90;;;;;;4880677;29;20037;-90
2023/10/21 01:11:13;;;;;;;32.58;10.52;;;22.50;99.90;;;;;;4879713;29;20052;-89
2023/10/21 01:13:39;;;;;;;38.97;10.90;;;22.60;99.90;;;;;;4864253;29;20033;-91
2023/10/21 01:16:06;;;;;;;60.00;12.48;;;22.50;99.90;;;;;;4864208;29;20059;-91
2023/10/21 01:18:35;;;;;;;39.97;10.60;;;22.60;99.90;;;;;;4864337;29;20029;-91
2023/10/21 01:21:03;;;;;;;44.75;11.63;;;22.60;99.90;;;;;;4864317;29;20025;-90
2023/10/21 01:23:30;;;;;;;51.28;11.48;;;22.60;99.90;;;;;;4864258;29;20095;-89
2023/10/21 01:25:57;;;;;;;57.03;12.35;;;22.60;99.90;;;;;;4864312;29;20491;-91
2023/10/21 01:28:23;;;;;;;46.08;10.95;;;22.60;99.90;;;;;;4864093;29;20029;-91
2023/10/21 01:30:49;;;;;;;52.88;11.63;;;22.60;99.90;;;;;;4864053;29;20080;-89
2023/10/21 01:33:16;;;;;;;52.67;11.98;;;22.60;99.90;;;;;;4864125;29;20128;-90
2023/10/21 01:35:43;;;;;;;51.03;12.30;;;22.60;99.90;;;;;;4864066;29;20514;-90
2023/10/21 01:38:10;;;;;;;46.70;12.15;;;22.60;99.90;;;;;;4863953;29;20041;-89
2023/10/21 01:40:40;;;;;;;58.88;12.48;;;22.60;99.90;;;;;;4875387;29;20036;-89
2023/10/21 01:43:07;;;;;;;48.80;10.85;;;22.60;99.90;;;;;;4879324;29;20070;-90
2023/10/21 01:45:42;;;;;;;44.75;11.65;;;22.60;99.90;;;;;;4879547;29;20399;-90
2023/10/21 01:48:09;;;;;;;52.17;12.85;;;22.50;99.90;;;;;;4879330;29;20033;-90
2023/10/21 01:50:37;;;;;;;52.65;12.15;;;22.60;99.90;;;;;;4864005;29;20036;-91
2023/10/21 01:53:03;;;;;;;55.60;11.45;;;22.60;99.90;;;;;;4879281;29;20037;-91
2023/10/21 01:55:30;;;;;;;47.88;11.68;;;22.60;99.90;;;;;;4879114;29;20029;-89
2023/10/21 01:57:56;;;;;;;48.55;12.32;;;22.60;99.90;;;;;;4863760;29;20542;-88
2023/10/21 02:00:23;;;;;;;51.63;12.38;;;22.60;99.90;;;;;;4879139;29;20064;-89
2023/10/21 02:02:52;;;;;;;38.05;10.88;;;22.60;99.90;;;;;;4879211;29;20044;-89
2023/10/21 02:05:19;;;;;;;39.80;10.93;;;22.70;99.90;;;;;;4895155;29;20063;-89
2023/10/21 02:07:47;;;;;;;51.83;11.00;;;22.70;99.90;;;;;;4904620;29;20036;-90
2023/10/21 02:10:17;;;;;;;43.70;11.50;;;22.70;99.90;;;;;;4897940;29;20021;-88
2023/10/21 02:12:44;;;;;;;39.50;12.85;;;22.80;99.90;;;;;;4913425;29;20088;-90
2023/10/21 02:15:14;;;;;;;54.58;12.50;;;22.80;99.90;;;;;;4913534;29;20024;-89
2023/10/21 02:17:44;;;;;;;44.58;11.30;;;22.80;99.90;;;;;;4913295;29;20048;-89
2023/10/21 02:20:12;;;;;;;57.22;11.70;;;22.70;99.90;;;;;;4897780;29;20032;-89
2023/10/21 02:22:39;;;;;;;46.75;11.50;;;22.70;99.90;;;;;;4913591;29;20064;-89
2023/10/21 02:25:12;;;;;;;55.05;12.70;;;22.70;99.90;;;;;;4882074;29;20033;-90
2023/10/21 02:27:41;;;;;;;68.93;13.60;;;22.70;99.90;;;;;;4913311;29;20033;-89
2023/10/21 02:30:15;;;;;;;50.35;11.80;;;22.70;99.90;;;;;;4897625;29;20025;-90
2023/10/21 02:32:46;;;;;;;58.60;11.52;;;22.70;99.90;;;;;;4913297;29;20057;-90
2023/10/21 02:35:13;;;;;;;57.83;11.60;;;22.70;99.90;;;;;;4913214;29;20036;-88
2023/10/21 02:37:41;;;;;;;48.85;12.13;;;22.70;99.90;;;;;;4897519;29;20044;-90
2023/10/21 02:40:08;;;;;;;62.38;13.55;;;22.60;99.90;;;;;;4913457;29;20076;-90
2023/10/21 02:42:38;;;;;;;54.97;12.60;;;22.70;99.90;;;;;;4897692;29;20455;-91
2023/10/21 02:45:08;;;;;;;49.15;11.90;;;22.70;99.90;;;;;;4913264;29;20033;-89
2023/10/21 02:47:37;;;;;;;51.60;13.25;;;22.60;99.90;;;;;;4897345;29;20063;-90
2023/10/21 02:50:04;;;;;;;49.17;12.48;;;22.70;99.90;;;;;;4897424;29;20096;-89
2023/10/21 02:52:32;;;;;;;46.38;11.75;;;22.70;99.90;;;;;;4913322;29;20490;-90
2023/10/21 02:54:58;;;;;;;52.55;12.50;;;22.60;99.90;;;;;;4899223;29;20024;-90
2023/10/21 02:57:25;;;;;;;50.60;13.13;;;22.70;99.90;;;;;;4916555;29;20048;-89
2023/10/21 02:59:51;;;;;;;49.00;11.75;;;22.60;99.90;;;;;;4900744;29;20566;-90
2023/10/21 03:02:18;;;;;;;44.95;12.48;;;22.70;99.90;;;;;;4916501;29;20102;-89
2023/10/21 03:04:44;;;;;;;45.88;11.85;;;22.60;99.90;;;;;;4900709;29;20029;-90
2023/10/21 03:07:12;;;;;;;60.70;12.15;;;22.60;99.90;;;;;;4916314;29;20033;-91
2023/10/21 03:09:39;;;;;;;52.67;13.18;;;22.60;99.90;;;;;;4900766;29;20032;-90
2023/10/21 03:12:07;;;;;;;54.55;12.23;;;22.60;99.90;;;;;;4916290;29;20127;-92
2023/10/21 03:14:35;;;;;;;62.03;13.13;;;22.60;99.90;;;;;;4900815;29;20021;-92
2023/10/21 03:17:03;;;;;;;46.38;11.10;;;22.60;99.90;;;;;;4916299;29;20043;-89
2023/10/21 03:19:30;;;;;;;58.78;13.65;;;22.70;99.90;;;;;;4900495;29;20025;-90
2023/10/21 03:21:57;;;;;;;52.38;13.52;;;22.70;99.90;;;;;;4900305;29;20028;-89
2023/10/21 03:24:23;;;;;;;45.97;11.85;;;22.70;99.90;;;;;;4900720;29;20107;-89
2023/10/21 03:26:51;;;;;;;52.30;12.82;;;22.70;99.90;;;;;;4900433;29;20092;-91
2023/10/21 03:29:18;;;;;;;49.75;12.98;;;22.70;99.90;;;;;;4900922;29;20060;-93
2023/10/21 03:31:47;;;;;;;61.47;13.20;;;22.70;99.90;;;;;;4915408;29;20491;-89
2023/10/21 03:34:14;;;;;;;49.13;12.68;;;22.70;99.90;;;;;;4898240;29;20059;-90
2023/10/21 03:36:40;;;;;;;56.05;12.90;;;22.70;99.90;;;;;;4866376;29;20041;-86
2023/10/21 03:39:07;;;;;;;51.30;12.30;;;22.70;99.90;;;;;;4866538;29;20033;-91
2023/10/21 03:41:33;;;;;;;59.50;13.48;;;22.70;99.90;;;;;;4865982;29;20033;-91
2023/10/21 03:44:03;;;;;;;53.22;13.77;;;22.70;99.90;;;;;;4881890;29;20113;-89
2023/10/21 03:46:31;;;;;;;51.83;11.43;;;22.70;99.90;;;;;;4866201;29;20033;-92
2023/10/21 03:48:57;;;;;;;46.05;13.70;;;22.70;99.90;;;;;;4866683;29;20431;-91
2023/10/21 03:51:24;;;;;;;66.38;13.60;;;22.70;99.90;;;;;;4865829;29;20048;-91
2023/10/21 03:53:51;;;;;;;43.58;11.50;;;22.70;99.90;;;;;;4865911;29;20029;-89
2023/10/21 03:56:18;;;;;;;56.67;12.80;;;22.70;99.90;;;;;;4865795;29;20052;-90
2023/10/21 03:58:44;;;;;;;50.30;12.02;;;22.70;99.90;;;;;;4865760;29;20048;-90
2023/10/21 04:01:23;;;;;;;49.20;12.43;;;22.70;99.90;;;;;;4867988;29;20056;-93
2023/10/21 04:03:53;;;;;;;55.35;13.23;;;22.70;99.90;;;;;;4866249;29;20120;-91
2023/10/21 04:06:20;;;;;;;50.47;12.00;;;22.70;99.90;;;;;;4864918;29;20029;-91
2023/10/21 04:08:46;;;;;;;58.53;13.38;;;22.70;99.90;;;;;;4865869;29;20037;-92
2023/10/21 04:11:16;;;;;;;47.85;12.05;;;22.70;99.90;;;;;;4884654;29;20032;-93
2023/10/21 04:13:42;;;;;;;48.90;12.00;;;22.70;99.90;;;;;;4884590;29;20036;-91
2023/10/21 04:16:09;;;;;;;49.03;12.73;;;22.70;99.90;;;;;;4900174;29;20092;-92
2023/10/21 04:18:36;;;;;;;58.80;12.88;;;22.70;99.90;;;;;;4885157;29;20025;-89
2023/10/21 04:21:02;;;;;;;58.13;12.88;;;22.70;99.90;;;;;;4899393;29;20037;-87
2023/10/21 04:23:30;;;;;;;51.35;12.65;;;22.70;99.90;;;;;;4902124;29;20032;-93
2023/10/21 04:28:45;;;;;;;60.22;12.82;;;22.60;99.90;;;;;;4902974;23;20055;-93
2023/10/21 04:31:12;;;;;;;47.25;12.65;;;22.60;99.90;;;;;;4923657;29;20032;-94
2023/10/21 04:33:39;;;;;;;46.70;11.13;;;22.70;99.90;;;;;;4923941;29;20038;-92
2023/10/21 04:36:05;;;;;;;50.15;12.48;;;22.60;99.90;;;;;;4923891;29;20035;-93
2023/10/21 04:38:32;;;;;;;46.95;13.20;;;22.60;99.90;;;;;;4920008;29;20039;-93
2023/10/21 04:40:58;;;;;;;61.92;12.18;;;22.60;99.90;;;;;;4919688;29;20059;-93
2023/10/21 04:43:25;;;;;;;42.05;11.70;;;22.60;99.90;;;;;;4919128;29;20107;-92
2023/10/21 04:45:51;;;;;;;71.18;12.20;;;22.60;99.90;;;;;;4919029;29;20103;-92
2023/10/21 04:48:18;;;;;;;58.20;12.23;;;22.60;99.90;;;;;;4919038;29;20040;-93
2023/10/21 04:50:45;;;;;;;54.20;13.25;;;22.60;99.90;;;;;;4918997;29;20024;-93
2023/10/21 04:53:12;;;;;;;56.08;12.05;;;22.60;99.90;;;;;;4919811;29;20413;-92
2023/10/21 04:55:39;;;;;;;58.13;13.13;;;22.60;99.90;;;;;;4918804;29;20020;-93
2023/10/21 04:58:06;;;;;;;65.32;14.77;;;22.60;99.90;;;;;;4918832;29;20036;-93
2023/10/21 05:00:33;;;;;;;38.92;11.00;;;22.60;99.90;;;;;;4918240;29;20401;-93
2023/10/21 05:02:59;;;;;;;53.83;13.02;;;22.60;99.90;;;;;;4918721;29;20039;-93
2023/10/21 05:05:26;;;;;;;47.65;14.15;;;22.70;99.90;;;;;;4924438;29;20028;-93
2023/10/21 05:07:52;;;;;;;42.72;12.10;;;22.70;99.90;;;;;;4885049;29;20364;-93
2023/10/21 05:10:19;;;;;;;36.47;11.88;;;22.60;99.90;;;;;;4899861;29;20032;-93
2023/10/21 05:12:46;;;;;;;46.63;12.00;;;22.70;99.90;;;;;;4899620;29;20029;-92
2023/10/21 05:15:13;;;;;;;46.13;12.27;;;22.70;99.90;;;;;;4900940;29;20025;-92
2023/10/21 05:17:40;;;;;;;44.08;12.05;;;22.80;99.90;;;;;;4884025;29;20040;-93
2023/10/21 05:20:08;;;;;;;50.30;11.32;;;22.80;99.90;;;;;;4899699;29;20482;-93
2023/10/21 05:22:37;;;;;;;54.08;12.50;;;22.80;99.90;;;;;;4884202;29;20032;-92
2023/10/21 05:25:04;;;;;;;45.55;11.75;;;22.80;99.90;;;;;;4900171;29;20390;-93
2023/10/21 05:27:30;;;;;;;48.35;12.02;;;22.80;99.90;;;;;;4899407;29;20071;-93
2023/10/21 05:29:57;;;;;;;39.20;11.02;;;22.80;99.90;;;;;;4898675;29;20052;-92
2023/10/21 05:32:23;;;;;;;50.63;12.20;;;22.80;99.90;;;;;;4883588;29;20029;-92
2023/10/21 05:34:49;;;;;;;47.78;12.10;;;22.90;99.90;;;;;;4899450;29;20039;-93
2023/10/21 05:37:16;;;;;;;45.88;11.82;;;22.90;99.90;;;;;;4883610;29;20041;-92
2023/10/21 05:39:46;;;;;;;42.03;11.75;;;22.90;99.90;;;;;;4898628;29;20024;-92
2023/10/21 05:42:12;;;;;;;48.80;11.90;;;23.00;99.90;;;;;;4883285;29;20033;-93
2023/10/21 05:44:38;;;;;;;55.90;13.18;;;23.00;99.90;;;;;;4899095;29;20036;-93
2023/10/21 05:47:05;;;;;;;49.60;11.60;;;23.00;99.90;;;;;;4883130;29;20037;-93
2023/10/21 05:49:31;;;;;;;52.90;13.40;;;23.10;99.90;;;;;;4898466;29;20119;-93
2023/10/21 05:52:04;;;;;;;49.63;12.65;;;23.10;99.90;;;;;;4883382;29;20087;-92
2023/10/21 05:54:34;;;;;;;46.28;12.32;;;23.20;99.90;;;;;;4868057;29;20525;-91
2023/10/21 05:57:00;;;;;;;43.88;12.73;;;23.20;99.90;;;;;;4898399;29;20071;-93
2023/10/21 05:59:31;;;;;;;42.38;12.07;;;23.20;99.90;;;;;;4883148;29;20035;-93
2023/10/21 06:01:57;;;;;;;40.40;13.52;;;23.20;99.90;;;;;;4882782;29;20032;-89
2023/10/21 06:04:23;;;;;;;45.17;13.90;;;23.20;99.90;;;;;;4898222;29;20119;-89
2023/10/21 06:06:54;;;;;;;42.00;13.77;;;23.20;99.90;;;;;;4898091;29;20120;-91
2023/10/21 06:09:23;;;;;;;43.13;14.18;;;23.20;99.90;;;;;;4882622;29;20043;-93
2023/10/21 06:11:53;;;;;;;51.80;13.73;;;23.30;99.90;;;;;;4900706;29;20028;-91
2023/10/21 06:14:21;;;;;;;42.63;14.18;;;23.30;99.90;;;;;;4916656;29;20040;-89
2023/10/21 06:16:48;;;;;;;36.90;12.40;;;23.30;99.90;;;;;;4916916;29;20047;-91
2023/10/21 06:19:16;;;;;;;48.38;13.85;;;23.30;99.90;;;;;;4916611;29;20028;-91
2023/10/21 06:21:42;;;;;;;49.97;13.77;;;23.30;99.90;;;;;;4916627;29;20024;-92
2023/10/21 06:24:09;;;;;;;41.95;13.77;;;23.30;99.90;;;;;;4916616;29;20132;-93
2023/10/21 06:26:36;;;;;;;45.95;14.13;;;23.40;99.90;;;;;;4917312;29;20033;-92
2023/10/21 06:29:02;;;;;;;43.70;13.48;;;23.40;99.90;;;;;;4918213;29;20036;-91
2023/10/21 06:31:29;;;;;;;42.55;13.13;;;23.40;99.90;;;;;;4920692;29;20024;-91
2023/10/21 06:33:56;;;;;;;52.08;13.52;;;23.30;99.90;;;;;;4920212;29;20114;-91
2023/10/21 06:36:26;;;;;;;57.22;13.90;;;23.30;99.90;;;;;;4919938;29;20065;-92
2023/10/21 06:38:57;;;;;;;50.25;12.65;;;23.30;99.90;;;;;;4901942;29;20039;-92
2023/10/21 06:41:23;;;;;;;50.33;13.30;;;23.30;99.90;;;;;;4885605;29;20040;-89
2023/10/21 06:43:51;;;;;;;43.63;12.30;;;23.30;99.90;;;;;;4886433;29;20088;-92
2023/10/21 06:46:19;;;;;;;52.65;12.27;;;23.20;99.90;;;;;;4886167;29;20064;-92
2023/10/21 06:48:45;;;;;;;47.60;12.88;;;23.30;99.90;;;;;;4886231;29;20112;-90
2023/10/21 06:51:13;;;;;;;43.42;12.32;;;23.30;99.90;;;;;;4886083;29;20036;-90
2023/10/21 06:53:40;;;;;;;46.42;13.10;;;23.20;99.90;;;;;;4885502;29;20072;-90
2023/10/21 06:56:11;;;;;;;42.58;12.80;;;23.20;99.90;;;;;;4885566;29;20036;-92
2023/10/21 06:58:38;;;;;;;48.30;13.15;;;23.30;99.90;;;;;;4886177;29;20060;-93
2023/10/21 07:01:05;;;;;;;41.63;12.05;;;23.30;99.90;;;;;;4885521;29;20029;-90
2023/10/21 07:03:32;;;;;;;43.47;12.30;;;23.30;99.90;;;;;;4885561;29;20056;-92
2023/10/21 07:05:58;;;;;;;39.55;12.38;;;23.40;99.90;;;;;;4885136;29;20024;-91
2023/10/21 07:08:25;;;;;;;35.88;12.15;;;23.40;99.90;;;;;;4885168;29;20061;-90
2023/10/21 07:10:55;;;;;;;51.08;13.20;;;23.40;99.90;;;;;;4885238;29;20021;-91
2023/10/21 07:13:21;;;;;;;35.72;12.13;;;23.50;99.90;;;;;;4884851;29;20517;-90
2023/10/21 07:15:48;;;;;;;49.78;13.93;;;23.50;99.90;;;;;;4885517;29;20436;-91
2023/10/21 07:18:14;;;;;;;44.47;13.85;;;23.50;99.90;;;;;;4885167;29;20045;-90
2023/10/21 07:20:41;;;;;;;45.03;13.20;;;23.50;99.90;;;;;;4886670;29;20398;-90
2023/10/21 07:23:12;;;;;;;43.75;13.55;;;23.50;99.90;;;;;;4887224;29;20033;-91
2023/10/21 07:25:39;;;;;;;46.92;13.45;;;23.60;99.90;;;;;;4919445;29;20032;-92
2023/10/21 07:28:05;;;;;;;43.53;14.50;;;23.60;99.90;;;;;;4903597;29;20044;-92
2023/10/21 07:30:32;;;;;;;53.08;14.65;;;23.60;99.90;;;;;;4903739;29;20056;-90
2023/10/21 07:33:00;;;;;;;49.13;14.98;;;23.70;99.90;;;;;;4904266;29;20024;-91
2023/10/21 07:35:39;;;;;;;46.00;13.40;;;23.70;99.90;;;;;;4907996;29;20119;-91
2023/10/21 07:38:07;;;;;;;49.33;13.60;;;23.80;99.90;;;;;;4906715;29;20123;-91
2023/10/21 07:40:33;;;;;;;63.95;15.90;;;23.80;99.90;;;;;;4907125;29;20035;-92
2023/10/21 07:43:00;;;;;;;39.05;13.57;;;23.80;99.90;;;;;;4905022;29;20486;-91
2023/10/21 07:45:30;;;;;;;42.67;14.10;;;23.80;99.90;;;;;;4907156;29;20024;-92
2023/10/21 07:47:57;;;;;;;49.03;14.18;;;23.90;99.90;;;;;;4923383;29;20039;-90
2023/10/21 07:50:24;;;;;;;48.10;15.23;;;23.90;99.90;;;;;;4921996;29;20039;-90
2023/10/21 07:52:50;;;;;;;41.28;14.48;;;24.00;99.90;;;;;;4923108;29;20036;-92
2023/10/21 07:55:34;;;;;;;38.42;14.68;;;24.00;99.90;;;;;;4912324;29;20024;-94
2023/10/21 07:58:00;;;;;;;34.00;16.05;;;24.10;99.90;;;;;;4907384;29;20107;-91
2023/10/21 08:00:28;;;;;;;44.50;15.77;;;24.20;99.90;;;;;;4906688;29;20035;-89
2023/10/21 08:02:55;;;;;;;39.83;15.32;;;24.30;99.90;;;;;;4902953;29;20064;-91
2023/10/21 08:05:27;;;;;;;33.08;15.23;;;24.30;99.90;;;;;;4904624;29;20497;-93
2023/10/21 08:07:57;;;;;;;38.58;15.90;;;24.40;99.90;;;;;;4902757;29;20039;-90
2023/10/21 08:10:26;;;;;;;42.22;16.17;;;24.50;99.90;;;;;;4918331;29;20056;-90
2023/10/21 08:12:53;;;;;;;41.33;15.93;;;24.50;99.90;;;;;;4902644;29;20036;-89
2023/10/21 08:15:19;;;;;;;40.45;15.75;;;24.50;99.90;;;;;;4918465;29;20068;-88
2023/10/21 08:17:46;;;;;;;31.73;15.77;;;24.50;99.90;;;;;;4901247;29;20036;-90
2023/10/21 08:20:12;;;;;;;43.20;16.67;;;24.50;99.90;;;;;;4918386;29;20075;-91
2023/10/21 08:22:39;;;;;;;52.20;16.33;;;24.70;99.90;;;;;;4918512;29;20402;-91
2023/10/21 08:25:12;;;;;;;43.25;16.73;;;24.70;99.90;;;;;;4918601;29;20036;-91
2023/10/21 08:27:38;;;;;;;43.33;16.85;;;24.60;99.90;;;;;;4918707;29;20032;-87
2023/10/21 08:30:06;;;;;;;37.00;15.68;;;24.50;99.90;;;;;;4919101;29;20052;-89
2023/10/21 08:32:32;;;;;;;32.10;16.45;;;24.50;99.90;;;;;;4918600;29;20043;-90
2023/10/21 08:34:59;;;;;;;48.60;16.05;;;24.50;99.90;;;;;;4918929;29;20486;-90
2023/10/21 08:37:25;;;;;;;35.88;15.40;;;24.60;99.90;;;;;;4918776;29;20040;-89
2023/10/21 08:39:52;;;;;;;35.85;15.70;;;24.50;99.90;;;;;;4918772;29;20039;-92
2023/10/21 08:42:23;;;;;;;52.17;16.70;;;24.60;99.90;;;;;;4917643;29;20069;-90
2023/10/21 08:44:50;;;;;;;37.22;16.70;;;24.70;99.90;;;;;;4902015;29;20062;-91
2023/10/21 08:47:21;;;;;;;36.53;16.45;;;24.70;99.90;;;;;;4917817;29;20123;-91
2023/10/21 08:49:49;;;;;;;40.67;17.02;;;24.60;99.90;;;;;;4902232;29;20032;-90
2023/10/21 08:52:18;;;;;;;47.30;18.17;;;24.60;99.90;;;;;;4901553;29;20036;-91
2023/10/21 08:54:48;;;;;;;37.50;16.10;;;24.70;99.90;;;;;;4902460;29;20032;-91
2023/10/21 08:57:16;;;;;;;42.65;16.77;;;24.60;99.90;;;;;;4901866;29;20127;-90
2023/10/21 08:59:43;;;;;;;29.92;15.82;;;24.50;99.90;;;;;;4901989;29;20103;-89
2023/10/21 09:02:10;;;;;;;40.20;16.23;;;24.50;99.90;;;;;;4901766;29;20687;-90
2023/10/21 09:04:39;;;;;;;40.78;16.45;;;24.60;99.90;;;;;;4901940;29;20126;-89
2023/10/21 09:07:07;;;;;;;38.58;15.75;;;24.60;99.90;;;;;;4901619;29;20079;-91
2023/10/21 09:09:34;;;;;;;41.97;16.27;;;24.50;99.90;;;;;;4901797;29;20394;-90
2023/10/21 09:12:13;;;;;;;39.75;15.95;;;24.60;99.90;;;;;;4902179;29;20032;-92
2023/10/21 09:14:57;;;;;;;42.78;17.65;;;24.60;99.90;;;;;;4903147;29;20031;-91
2023/10/21 09:17:40;;;;;;;42.03;17.90;;;24.50;99.90;;;;;;4902006;29;20040;-92
2023/10/21 09:20:11;;;;;;;41.05;16.95;;;24.60;99.90;;;;;;4918347;29;20036;-92
2023/10/21 09:22:40;;;;;;;33.03;15.88;;;24.60;99.90;;;;;;4933987;29;20028;-94
2023/10/21 09:25:19;;;;;;;28.83;15.63;;;24.60;99.90;;;;;;4918271;29;20032;-91
2023/10/21 09:27:54;;;;;;;39.53;16.85;;;24.60;99.90;;;;;;4917720;29;20036;-91
2023/10/21 09:30:24;;;;;;;42.42;15.95;;;24.60;99.90;;;;;;4937130;29;20056;-91
2023/10/21 09:32:51;;;;;;;39.25;16.67;;;24.70;99.90;;;;;;4933253;29;20111;-94
2023/10/21 09:35:25;;;;;;;36.55;16.38;;;24.70;99.90;;;;;;4917931;29;20039;-88
2023/10/21 09:37:52;;;;;;;34.58;16.95;;;24.80;99.90;;;;;;4934400;29;20130;-90
2023/10/21 09:40:21;;;;;;;39.53;16.30;;;24.90;99.90;;;;;;4917097;29;20032;-91
2023/10/21 09:42:56;;;;;;;35.13;17.35;;;25.10;99.90;;;;;;4917063;29;20035;-90
2023/10/21 09:45:27;;;;;;;32.25;16.73;;;25.00;99.90;;;;;;4910187;29;20072;-83
2023/10/21 09:47:56;;;;;;;42.40;17.33;;;25.10;99.90;;;;;;4921408;29;20470;-80
2023/10/21 09:50:24;;;;;;;41.70;17.90;;;25.00;99.90;;;;;;4915565;29;20107;-80
2023/10/21 09:53:12;;;;;;;38.20;16.88;;;25.00;99.90;;;;;;4916736;29;20478;-87
2023/10/21 09:55:42;;;;;;;37.00;16.40;;;25.00;99.90;;;;;;4915082;29;20367;-84
2023/10/21 09:58:09;;;;;;;46.70;17.27;;;24.90;99.90;;;;;;4899837;29;20040;-80
2023/10/21 10:00:37;;;;;;;38.13;15.93;;;24.90;99.90;;;;;;4916493;29;20398;-83
2023/10/21 10:03:07;;;;;;;48.67;16.88;;;24.90;99.90;;;;;;4916677;29;20051;-83
2023/10/21 10:05:37;;;;;;;40.97;17.77;;;24.90;99.90;;;;;;4922468;29;20036;-83
2023/10/21 10:08:06;;;;;;;43.70;16.60;;;24.90;99.90;;;;;;4919017;29;20020;-82
2023/10/21 10:10:34;;;;;;;36.85;17.10;;;24.80;99.90;;;;;;4919101;29;20039;-82
2023/10/21 10:13:09;;;;;;;40.70;17.33;;;24.90;99.90;;;;;;4901392;29;20071;-83
2023/10/21 10:15:42;;;;;;;38.88;17.02;;;24.90;99.90;;;;;;4903196;29;20032;-83
2023/10/21 10:18:13;;;;;;;37.83;18.00;;;25.10;99.90;;;;;;4919062;29;20490;-83
2023/10/21 10:20:51;;;;;;;43.75;17.75;;;25.30;99.90;;;;;;4918959;29;20028;-82
2023/10/21 10:23:24;;;;;;;36.42;17.92;;;25.20;99.90;;;;;;4903297;29;20119;-83
2023/10/21 10:25:51;;;;;;;43.13;16.97;;;25.30;99.90;;;;;;4903336;29;20025;-82
2023/10/21 10:28:25;;;;;;;36.40;18.25;;;25.40;99.90;;;;;;4918333;29;20063;-82
2023/10/21 10:30:53;;;;;;;39.90;18.40;;;25.40;99.90;;;;;;4919888;29;20099;-83
2023/10/21 10:33:28;;;;;;;45.13;18.90;;;25.30;99.90;;;;;;4934547;29;20030;-82
2023/10/21 10:36:00;;;;;;;40.03;17.98;;;25.30;99.90;;;;;;4934499;29;20028;-83
2023/10/21 10:38:35;;;;;;;36.80;17.88;;;25.20;99.90;;;;;;4934304;29;20048;-83
2023/10/21 10:41:11;;;;;;;40.10;18.00;;;25.10;99.90;;;;;;4918700;29;20390;-82
2023/10/21 10:44:10;;;;;;;30.95;16.25;;;25.10;99.90;;;;;;4934542;29;20100;-82
2023/10/21 10:46:37;;;;;;;39.42;16.48;;;24.90;99.90;;;;;;4878943;29;20399;-82
2023/10/21 10:49:10;;;;;;;48.53;17.23;;;25.00;99.90;;;;;;4913492;29;20395;-82
2023/10/21 10:51:46;;;;;;;36.13;16.92;;;24.90;99.90;;;;;;4915374;29;20029;-82
2023/10/21 10:54:18;;;;;;;35.78;16.23;;;24.70;99.90;;;;;;4900890;29;20096;-82
2023/10/21 10:56:46;;;;;;;35.40;14.55;;;24.70;99.90;;;;;;4905337;29;20471;-82
2023/10/21 10:59:18;;;;;;;43.67;16.33;;;24.60;99.90;;;;;;4902698;29;20040;-82
2023/10/21 11:02:01;;;;;;;38.22;15.60;;;24.60;99.90;;;;;;4918014;29;20107;-80
2023/10/21 11:04:32;;;;;;;44.08;16.23;;;24.50;99.90;;;;;;4916801;29;20080;-81
2023/10/21 11:07:03;;;;;;;48.28;15.05;;;24.50;99.90;;;;;;4919500;29;20035;-82
2023/10/21 11:09:33;;;;;;;40.03;16.33;;;24.50;99.90;;;;;;4919760;29;20099;-83
2023/10/21 11:12:00;;;;;;;34.08;15.65;;;24.60;99.90;;;;;;4918547;29;20029;-83
2023/10/21 11:14:27;;;;;;;47.20;15.90;;;24.60;99.90;;;;;;4918381;29;20032;-84
2023/10/21 11:16:55;;;;;;;33.40;14.63;;;24.50;99.90;;;;;;4917947;29;20131;-83
2023/10/21 11:19:23;;;;;;;40.95;16.40;;;24.60;99.90;;;;;;4902745;29;20035;-83
2023/10/21 11:21:49;;;;;;;51.20;16.40;;;24.50;99.90;;;;;;4918065;29;20074;-83
2023/10/21 11:24:18;;;;;;;40.17;17.13;;;24.50;99.90;;;;;;4902747;29;20154;-84
2023/10/21 11:26:46;;;;;;;45.40;15.52;;;24.40;99.90;;;;;;4934243;29;20052;-87
2023/10/21 11:29:12;;;;;;;50.78;16.33;;;24.40;99.90;;;;;;4918417;29;20063;-88
2023/10/21 11:31:38;;;;;;;42.33;15.27;;;24.40;99.90;;;;;;4919495;29;20107;-82
2023/10/21 11:34:16;;;;;;;48.83;16.65;;;24.40;99.90;;;;;;4919277;29;20024;-82
2023/10/21 11:36:44;;;;;;;51.58;16.50;;;24.40;99.90;;;;;;4933619;29;20093;-82
2023/10/21 11:39:13;;;;;;;44.28;14.88;;;24.40;99.90;;;;;;4933769;29;20036;-82
2023/10/21 11:41:50;;;;;;;44.80;16.05;;;24.50;99.90;;;;;;4933588;29;20506;-83
2023/10/21 11:44:18;;;;;;;31.48;14.65;;;24.50;99.90;;;;;;4919063;29;20036;-82
2023/10/21 11:46:44;;;;;;;41.42;15.93;;;24.70;99.90;;;;;;4917669;29;20390;-81
2023/10/21 11:49:23;;;;;;;39.33;15.95;;;24.70;99.90;;;;;;4902359;29;20021;-84
2023/10/21 11:52:13;;;;;;;38.03;16.15;;;24.80;99.90;;;;;;4917485;29;20032;-85
2023/10/21 11:55:22;;;;;;;36.60;16.75;;;24.90;99.90;;;;;;4930631;29;20078;-84
2023/10/21 12:38:40;;;;;;;44.45;17.42;;;25.00;99.90;;;;;;4914001;29;20091;-83
2023/10/21 12:41:23;;;;;;;48.20;17.65;;;25.00;99.90;;;;;;4897938;29;20115;-84
2023/10/21 12:43:50;;;;;;;34.90;16.48;;;24.80;99.90;;;;;;4911052;29;20486;-83
2023/10/21 12:46:20;;;;;;;41.70;16.75;;;24.80;99.90;;;;;;4916654;29;20040;-83
2023/10/21 12:48:52;;;;;;;47.03;16.70;;;24.80;99.90;;;;;;4900870;29;20039;-83
2023/10/21 12:51:22;;;;;;;44.97;18.23;;;24.80;99.90;;;;;;4916353;29;20052;-83
2023/10/21 12:53:50;;;;;;;45.17;17.08;;;24.80;99.90;;;;;;4900757;29;20032;-85
2023/10/21 12:56:18;;;;;;;35.30;16.45;;;24.80;99.90;;;;;;4925478;29;20028;-86
2023/10/21 12:58:45;;;;;;;42.25;17.17;;;24.80;99.90;;;;;;4932573;29;20036;-87
2023/10/21 13:01:15;;;;;;;40.03;16.90;;;24.80;99.90;;;;;;4916833;29;20052;-87
2023/10/21 13:03:42;;;;;;;37.38;16.50;;;24.90;99.90;;;;;;4932482;29;20035;-86
2023/10/21 13:06:09;;;;;;;41.75;16.63;;;24.90;99.90;;;;;;4922306;29;20063;-86
2023/10/21 13:08:36;;;;;;;41.58;16.70;;;25.00;99.90;;;;;;4913628;29;20025;-86
2023/10/21 13:11:03;;;;;;;52.25;17.60;;;25.10;99.90;;;;;;4882221;29;20051;-87
2023/10/21 13:13:35;;;;;;;43.75;17.65;;;25.20;99.90;;;;;;4898138;29;20092;-87
2023/10/21 13:16:03;;;;;;;37.25;17.38;;;25.30;99.90;;;;;;4906078;29;20550;-88
2023/10/21 13:18:30;;;;;;;39.38;18.25;;;25.30;99.90;;;;;;4932329;29;20036;-87
2023/10/21 13:20:57;;;;;;;33.25;17.88;;;25.30;99.90;;;;;;4916146;29;20032;-85